Jonni Ritscher — A8JT7 — position and weather

sailwx.info

Track history (hours):
 
Tides and Currents Weather Stations Pressure Air Temp Water Temp Dewpoint Dewpoint Depression Visibility Wind Speed Wind Dir Waves Ship Positions

Jonni Ritscher

Last reported at 2015-Jul-17 15:29 UTC. Time now 2015-Aug-04 05:28 UTC.
Position N 35°54' W 009°43'.
Warning: this ship's position is 17 days out of date.

Length 178 m; draft 9.6 m.

Type: Ship. MMSI: 636091136.

Date/timePositionNaut miles runAvg speedWind from/ knotsBaromVisibWave heightAir tempDewpointWater temp
2015-Jul-17 15:29N 35°54' W 009°43'1819.5
2015-Jul-17 14:33N 35°54' W 009°20'1919.4
2015-Jul-17 13:34N 35°54' W 008°57'1919.2
2015-Jul-17 12:33N 35°55' W 008°33'7719.3
2015-Jul-17 08:33N 35°57' W 006°58'2319.5
2015-Jul-17 07:22N 35°58' W 006°29'184 5.4
2015-Jul-15 21:29N 36°22' W 002°44'1717.7
2015-Jul-15 20:33N 36°24' W 002°24'2017.2
2015-Jul-15 19:25N 36°33' W 002°02'1817.8
2015-Jul-15 18:25N 36°45' W 001°45'1817.8
2015-Jul-15 17:25N 36°56' W 001°28'1618.1
2015-Jul-15 16:33N 37°07' W 001°13'1818.0
2015-Jul-15 15:33N 37°19' W 000°56'2317.7
2015-Jul-15 14:15N 37°34' W 000°35'1318.1
2015-Jul-15 13:33N 37°44' W 000°25'1818.1
2015-Jul-15 12:33N 37°59' W 000°12'1818.1
2015-Jul-15 11:32N 38°15' W 000°00'1817.8
2015-Jul-15 10:33N 38°29' E 000°12'1616.3
2015-Jul-15 09:33N 38°43' E 000°23'2116.6
2015-Jul-15 08:17N 39°02' E 000°11'34 2.4
2015-Jul-14 18:15N 39°27' W 000°19'0 0.0
2015-Jul-14 17:33N 39°27' W 000°19'0 0.0
2015-Jul-14 16:33N 39°27' W 000°19'0 0.0
2015-Jul-14 15:33N 39°27' W 000°19'0 0.0
2015-Jul-14 14:33N 39°27' W 000°19'0 0.0
2015-Jul-14 13:33N 39°27' W 000°19'0 0.0
2015-Jul-14 12:33N 39°27' W 000°19'0 0.0
2015-Jul-14 11:33N 39°27' W 000°19'1 1.4
2015-Jul-14 10:33N 39°26' W 000°18'4 3.8
2015-Jul-14 09:29N 39°26' W 000°13'5015.2
2015-Jul-14 06:11N 39°47' E 000°47'1116.9
2015-Jul-14 05:33N 39°54' E 000°57'1717.2
2015-Jul-14 04:33N 40°07' E 001°11'1717.1
2015-Jul-14 03:33N 40°21' E 001°23'1817.5
2015-Jul-14 02:33N 40°36' E 001°36'1717.4
2015-Jul-14 01:33N 40°51' E 001°48'1717.3
2015-Jul-14 00:33N 41°05' E 002°01'1615.3
2015-Jul-13 23:32N 41°19' E 002°10'2 2.1
2015-Jul-13 22:33N 41°21' E 002°10'0 0.0
2015-Jul-13 21:26N 41°21' E 002°10'0 0.0
2015-Jul-13 20:31N 41°21' E 002°10'0 0.0
2015-Jul-13 19:26N 41°21' E 002°10'0 0.0
2015-Jul-13 17:18N 41°21' E 002°10'0 0.0
2015-Jul-13 14:31N 41°21' E 002°10'0 0.0
2015-Jul-13 13:30N 41°21' E 002°10'5 1.7
2015-Jul-13 10:30N 41°19' E 002°16'3 3.1
2015-Jul-13 09:33N 41°20' E 002°20'1717.2
2015-Jul-13 08:33N 41°25' E 002°42'10218.7
2015-Jul-13 03:08N 42°01' E 004°49'1218.8
2015-Jul-13 02:31N 42°07' E 005°03'2418.0
2015-Jul-13 01:12N 42°20' E 005°30'1217.9
2015-Jul-13 00:33N 42°26' E 005°43'1918.3
2015-Jul-12 23:32N 42°36' E 006°04'1818.2
2015-Jul-12 22:33N 42°45' E 006°25'1818.2
2015-Jul-12 21:33N 42°55' E 006°46'1918.3
2015-Jul-12 20:32N 43°06' E 007°06'1818.6
2015-Jul-12 19:33N 43°18' E 007°25'1818.4
2015-Jul-12 18:33N 43°31' E 007°43'2718.6
2015-Jul-12 17:06N 43°49' E 008°11'1017.8
2015-Jul-12 16:33N 43°56' E 008°21'1717.4
2015-Jul-12 15:33N 44°07' E 008°39'1717.2
2015-Jul-12 14:34N 44°19' E 008°57'6 5.4
2015-Jul-12 13:31N 44°24' E 008°54'0 0.0
2015-Jul-12 12:33N 44°24' E 008°54'0 0.0
2015-Jul-12 11:33N 44°24' E 008°54'0 0.0
2015-Jul-12 10:32N 44°24' E 008°54'0 0.0
2015-Jul-12 09:32N 44°24' E 008°54'0 0.0
2015-Jul-12 08:32N 44°24' E 008°54'0 0.0
2015-Jul-12 07:28N 44°24' E 008°54'0 0.0
2015-Jul-12 06:33N 44°24' E 008°54'0 0.0
2015-Jul-12 05:30N 44°24' E 008°54'0 0.0
2015-Jul-12 04:33N 44°24' E 008°54'0 0.0
2015-Jul-12 03:32N 44°24' E 008°54'0 0.0
2015-Jul-12 02:32N 44°24' E 008°54'0 0.0
2015-Jul-12 01:32N 44°24' E 008°54'0 0.0
2015-Jul-12 00:31N 44°24' E 008°54'0 0.0
2015-Jul-11 23:31N 44°24' E 008°54'0 0.0
2015-Jul-11 22:33N 44°24' E 008°54'0 0.0
2015-Jul-11 21:33N 44°24' E 008°54'0 0.0
2015-Jul-11 20:33N 44°24' E 008°54'0 0.0
2015-Jul-11 19:33N 44°24' E 008°54'0 0.0
2015-Jul-11 18:33N 44°24' E 008°54'3 3.0
2015-Jul-11 17:33N 44°23' E 008°58'4 4.2
2015-Jul-11 16:33N 44°19' E 009°00'8 8.2
2015-Jul-11 15:33N 44°11' E 008°59'0 0.2
2015-Jul-11 14:33N 44°11' E 008°59'0 0.2
2015-Jul-11 13:33N 44°11' E 008°60'0 0.2
2015-Jul-11 12:33N 44°11' E 008°60'0 0.2
2015-Jul-11 11:33N 44°10' E 009°00'0 0.1
2015-Jul-11 10:33N 44°11' E 009°00'0 0.1
2015-Jul-11 09:33N 44°11' E 009°00'0 0.1
2015-Jul-11 08:33N 44°11' E 009°00'0 0.1
2015-Jul-11 07:33N 44°11' E 009°00'0 0.2
2015-Jul-11 06:33N 44°11' E 009°01'6 5.8
2015-Jul-11 05:33N 44°08' E 009°08'7 7.0
2015-Jul-11 04:33N 44°04' E 009°16'6 5.8
2015-Jul-11 03:33N 44°00' E 009°21'6 5.6
2015-Jul-11 02:33N 43°55' E 009°26'6 5.6
2015-Jul-11 01:33N 43°51' E 009°30'6 5.6
2015-Jul-11 00:33N 43°46' E 009°35'6 5.7
2015-Jul-10 23:33N 43°42' E 009°40'6 5.9
2015-Jul-10 22:33N 43°37' E 009°45'6 5.9
2015-Jul-10 21:33N 43°32' E 009°50'6 6.0
2015-Jul-10 20:33N 43°32' E 009°58'6 6.2
2015-Jul-10 19:33N 43°31' E 010°06'6 5.7
2015-Jul-10 18:33N 43°32' E 010°14'4 3.8
2015-Jul-10 17:32N 43°34' E 010°18'0 0.0
2015-Jul-10 16:31N 43°34' E 010°18'0 0.0
2015-Jul-10 15:31N 43°34' E 010°18'0 0.0
2015-Jul-10 14:34N 43°34' E 010°18'0 0.0
2015-Jul-10 13:33N 43°34' E 010°18'0 0.0
2015-Jul-10 12:33N 43°34' E 010°18'0 0.0
2015-Jul-10 11:33N 43°34' E 010°18'1 0.7
2015-Jul-10 10:33N 43°34' E 010°18'9 8.9
2015-Jul-10 09:33N 43°27' E 010°10'1514.8
2015-Jul-10 08:33N 43°17' E 009°55'1515.1
2015-Jul-10 07:33N 43°11' E 009°36'1514.9
2015-Jul-10 06:33N 43°05' E 009°17'6315.7
2015-Jul-10 02:32N 42°24' E 008°11'3215.6
2015-Jul-10 00:30N 42°02' E 007°41'1515.4
2015-Jul-09 23:33N 41°52' E 007°27'1815.1
2015-Jul-09 22:24N 41°40' E 007°10'2815.3
2015-Jul-09 20:33N 41°20' E 006°43'18515.4
2015-Jul-09 08:33N 39°17' E 003°43'1515.2
2015-Jul-09 07:33N 39°08' E 003°26'1717.1
2015-Jul-09 06:33N 38°59' E 003°08'1515.3
2015-Jul-09 05:33N 38°51' E 002°51'1515.3
2015-Jul-09 04:33N 38°43' E 002°35'1515.4
2015-Jul-09 03:34N 38°35' E 002°18'1515.1
2015-Jul-09 02:33N 38°26' E 002°02'1515.4
2015-Jul-09 01:33N 38°18' E 001°45'1817.3
2015-Jul-09 00:32N 38°09' E 001°27'1313.3
2015-Jul-08 23:34N 38°02' E 001°13'1615.7
2015-Jul-08 22:33N 37°53' E 000°56'1615.7
2015-Jul-08 21:33N 37°45' E 000°39'1615.6
2015-Jul-08 20:33N 37°36' E 000°22'1515.3
2015-Jul-08 19:33N 37°28' E 000°06'1515.5
2015-Jul-08 18:33N 37°20' W 000°10'1615.6
2015-Jul-08 17:33N 37°11' W 000°27'1615.6
2015-Jul-08 16:33N 37°03' W 000°43'1515.3
2015-Jul-08 15:33N 36°54' W 000°59'1615.6
2015-Jul-08 14:33N 36°46' W 001°16'1515.6
2015-Jul-08 13:34N 36°38' W 001°32'1515.5
2015-Jul-08 12:34N 36°29' W 001°48'1515.0
2015-Jul-08 11:34N 36°23' W 002°05'1515.1
2015-Jul-08 10:34N 36°20' W 002°23'1515.2
2015-Jul-08 09:34N 36°18' W 002°42'1616.4
2015-Jul-08 08:34N 36°16' W 003°02'2018.0
2015-Jul-08 07:28N 36°13' W 003°26'  
Track history (hours):
 
Tides and Currents Weather Stations Pressure Air Temp Water Temp Dewpoint Dewpoint Depression Visibility Wind Speed Wind Dir Waves Ship Positions

Jonni Ritscher

Last reported at 2015-Jul-17 15:29 UTC. Time now 2015-Aug-04 05:28 UTC.
Position N 35°54' W 009°43'.
Warning: this ship's position is 17 days out of date.

Length 178 m; draft 9.6 m.

Type: Ship. MMSI: 636091136.

Date/timePositionNaut miles runAvg speedWind from/ knotsBaromVisibWave heightAir tempDewpointWater temp
2015-Jul-17 15:29N 35°54' W 009°43'1819.5
2015-Jul-17 14:33N 35°54' W 009°20'1919.4
2015-Jul-17 13:34N 35°54' W 008°57'1919.2
2015-Jul-17 12:33N 35°55' W 008°33'7719.3
2015-Jul-17 08:33N 35°57' W 006°58'2319.5
2015-Jul-17 07:22N 35°58' W 006°29'184 5.4
2015-Jul-15 21:29N 36°22' W 002°44'1717.7
2015-Jul-15 20:33N 36°24' W 002°24'2017.2
2015-Jul-15 19:25N 36°33' W 002°02'1817.8
2015-Jul-15 18:25N 36°45' W 001°45'1817.8
2015-Jul-15 17:25N 36°56' W 001°28'1618.1
2015-Jul-15 16:33N 37°07' W 001°13'1818.0
2015-Jul-15 15:33N 37°19' W 000°56'2317.7
2015-Jul-15 14:15N 37°34' W 000°35'1318.1
2015-Jul-15 13:33N 37°44' W 000°25'1818.1
2015-Jul-15 12:33N 37°59' W 000°12'1818.1
2015-Jul-15 11:32N 38°15' W 000°00'1817.8
2015-Jul-15 10:33N 38°29' E 000°12'1616.3
2015-Jul-15 09:33N 38°43' E 000°23'2116.6
2015-Jul-15 08:17N 39°02' E 000°11'34 2.4
2015-Jul-14 18:15N 39°27' W 000°19'0 0.0
2015-Jul-14 17:33N 39°27' W 000°19'0 0.0
2015-Jul-14 16:33N 39°27' W 000°19'0 0.0
2015-Jul-14 15:33N 39°27' W 000°19'0 0.0
2015-Jul-14 14:33N 39°27' W 000°19'0 0.0
2015-Jul-14 13:33N 39°27' W 000°19'0 0.0
2015-Jul-14 12:33N 39°27' W 000°19'0 0.0
2015-Jul-14 11:33N 39°27' W 000°19'1 1.4
2015-Jul-14 10:33N 39°26' W 000°18'4 3.8
2015-Jul-14 09:29N 39°26' W 000°13'5015.2
2015-Jul-14 06:11N 39°47' E 000°47'1116.9
2015-Jul-14 05:33N 39°54' E 000°57'1717.2
2015-Jul-14 04:33N 40°07' E 001°11'1717.1
2015-Jul-14 03:33N 40°21' E 001°23'1817.5
2015-Jul-14 02:33N 40°36' E 001°36'1717.4
2015-Jul-14 01:33N 40°51' E 001°48'1717.3
2015-Jul-14 00:33N 41°05' E 002°01'1615.3
2015-Jul-13 23:32N 41°19' E 002°10'2 2.1
2015-Jul-13 22:33N 41°21' E 002°10'0 0.0
2015-Jul-13 21:26N 41°21' E 002°10'0 0.0
2015-Jul-13 20:31N 41°21' E 002°10'0 0.0
2015-Jul-13 19:26N 41°21' E 002°10'0 0.0
2015-Jul-13 17:18N 41°21' E 002°10'0 0.0
2015-Jul-13 14:31N 41°21' E 002°10'0 0.0
2015-Jul-13 13:30N 41°21' E 002°10'5 1.7
2015-Jul-13 10:30N 41°19' E 002°16'3 3.1
2015-Jul-13 09:33N 41°20' E 002°20'1717.2
2015-Jul-13 08:33N 41°25' E 002°42'10218.7
2015-Jul-13 03:08N 42°01' E 004°49'1218.8
2015-Jul-13 02:31N 42°07' E 005°03'2418.0
2015-Jul-13 01:12N 42°20' E 005°30'1217.9
2015-Jul-13 00:33N 42°26' E 005°43'1918.3
2015-Jul-12 23:32N 42°36' E 006°04'1818.2
2015-Jul-12 22:33N 42°45' E 006°25'1818.2
2015-Jul-12 21:33N 42°55' E 006°46'1918.3
2015-Jul-12 20:32N 43°06' E 007°06'1818.6
2015-Jul-12 19:33N 43°18' E 007°25'1818.4
2015-Jul-12 18:33N 43°31' E 007°43'2718.6
2015-Jul-12 17:06N 43°49' E 008°11'1017.8
2015-Jul-12 16:33N 43°56' E 008°21'1717.4
2015-Jul-12 15:33N 44°07' E 008°39'1717.2
2015-Jul-12 14:34N 44°19' E 008°57'6 5.4
2015-Jul-12 13:31N 44°24' E 008°54'0 0.0
2015-Jul-12 12:33N 44°24' E 008°54'0 0.0
2015-Jul-12 11:33N 44°24' E 008°54'0 0.0
2015-Jul-12 10:32N 44°24' E 008°54'0 0.0
2015-Jul-12 09:32N 44°24' E 008°54'0 0.0
2015-Jul-12 08:32N 44°24' E 008°54'0 0.0
2015-Jul-12 07:28N 44°24' E 008°54'0 0.0
2015-Jul-12 06:33N 44°24' E 008°54'0 0.0
2015-Jul-12 05:30N 44°24' E 008°54'0 0.0
2015-Jul-12 04:33N 44°24' E 008°54'0 0.0
2015-Jul-12 03:32N 44°24' E 008°54'0 0.0
2015-Jul-12 02:32N 44°24' E 008°54'0 0.0
2015-Jul-12 01:32N 44°24' E 008°54'0 0.0
2015-Jul-12 00:31N 44°24' E 008°54'0 0.0
2015-Jul-11 23:31N 44°24' E 008°54'0 0.0
2015-Jul-11 22:33N 44°24' E 008°54'0 0.0
2015-Jul-11 21:33N 44°24' E 008°54'0 0.0
2015-Jul-11 20:33N 44°24' E 008°54'0 0.0
2015-Jul-11 19:33N 44°24' E 008°54'0 0.0
2015-Jul-11 18:33N 44°24' E 008°54'3 3.0
2015-Jul-11 17:33N 44°23' E 008°58'4 4.2
2015-Jul-11 16:33N 44°19' E 009°00'8 8.2
2015-Jul-11 15:33N 44°11' E 008°59'0 0.2
2015-Jul-11 14:33N 44°11' E 008°59'0 0.2
2015-Jul-11 13:33N 44°11' E 008°60'0 0.2
2015-Jul-11 12:33N 44°11' E 008°60'0 0.2
2015-Jul-11 11:33N 44°10' E 009°00'0 0.1
2015-Jul-11 10:33N 44°11' E 009°00'0 0.1
2015-Jul-11 09:33N 44°11' E 009°00'0 0.1
2015-Jul-11 08:33N 44°11' E 009°00'0 0.1
2015-Jul-11 07:33N 44°11' E 009°00'0 0.2
2015-Jul-11 06:33N 44°11' E 009°01'6 5.8
2015-Jul-11 05:33N 44°08' E 009°08'7 7.0
2015-Jul-11 04:33N 44°04' E 009°16'6 5.8
2015-Jul-11 03:33N 44°00' E 009°21'6 5.6
2015-Jul-11 02:33N 43°55' E 009°26'6 5.6
2015-Jul-11 01:33N 43°51' E 009°30'6 5.6
2015-Jul-11 00:33N 43°46' E 009°35'6 5.7
2015-Jul-10 23:33N 43°42' E 009°40'6 5.9
2015-Jul-10 22:33N 43°37' E 009°45'6 5.9
2015-Jul-10 21:33N 43°32' E 009°50'6 6.0
2015-Jul-10 20:33N 43°32' E 009°58'6 6.2
2015-Jul-10 19:33N 43°31' E 010°06'6 5.7
2015-Jul-10 18:33N 43°32' E 010°14'4 3.8
2015-Jul-10 17:32N 43°34' E 010°18'0 0.0
2015-Jul-10 16:31N 43°34' E 010°18'0 0.0
2015-Jul-10 15:31N 43°34' E 010°18'0 0.0
2015-Jul-10 14:34N 43°34' E 010°18'0 0.0
2015-Jul-10 13:33N 43°34' E 010°18'0 0.0
2015-Jul-10 12:33N 43°34' E 010°18'0 0.0
2015-Jul-10 11:33N 43°34' E 010°18'1 0.7
2015-Jul-10 10:33N 43°34' E 010°18'9 8.9
2015-Jul-10 09:33N 43°27' E 010°10'1514.8
2015-Jul-10 08:33N 43°17' E 009°55'1515.1
2015-Jul-10 07:33N 43°11' E 009°36'1514.9
2015-Jul-10 06:33N 43°05' E 009°17'6315.7
2015-Jul-10 02:32N 42°24' E 008°11'3215.6
2015-Jul-10 00:30N 42°02' E 007°41'1515.4
2015-Jul-09 23:33N 41°52' E 007°27'1815.1
2015-Jul-09 22:24N 41°40' E 007°10'2815.3
2015-Jul-09 20:33N 41°20' E 006°43'18515.4
2015-Jul-09 08:33N 39°17' E 003°43'1515.2
2015-Jul-09 07:33N 39°08' E 003°26'1717.1
2015-Jul-09 06:33N 38°59' E 003°08'1515.3
2015-Jul-09 05:33N 38°51' E 002°51'1515.3
2015-Jul-09 04:33N 38°43' E 002°35'1515.4
2015-Jul-09 03:34N 38°35' E 002°18'1515.1
2015-Jul-09 02:33N 38°26' E 002°02'1515.4
2015-Jul-09 01:33N 38°18' E 001°45'1817.3
2015-Jul-09 00:32N 38°09' E 001°27'1313.3
2015-Jul-08 23:34N 38°02' E 001°13'1615.7
2015-Jul-08 22:33N 37°53' E 000°56'1615.7
2015-Jul-08 21:33N 37°45' E 000°39'1615.6
2015-Jul-08 20:33N 37°36' E 000°22'1515.3
2015-Jul-08 19:33N 37°28' E 000°06'1515.5
2015-Jul-08 18:33N 37°20' W 000°10'1615.6
2015-Jul-08 17:33N 37°11' W 000°27'1615.6
2015-Jul-08 16:33N 37°03' W 000°43'1515.3
2015-Jul-08 15:33N 36°54' W 000°59'1615.6
2015-Jul-08 14:33N 36°46' W 001°16'1515.6
2015-Jul-08 13:34N 36°38' W 001°32'1515.5
2015-Jul-08 12:34N 36°29' W 001°48'1515.0
2015-Jul-08 11:34N 36°23' W 002°05'1515.1
2015-Jul-08 10:34N 36°20' W 002°23'1515.2
2015-Jul-08 09:34N 36°18' W 002°42'1616.4
2015-Jul-08 08:34N 36°16' W 003°02'2018.0
2015-Jul-08 07:28N 36°13' W 003°26'  

Dump ship's entire track history